createdAt,value
2019-02-22T00:02:38.771Z,12.93
2019-02-22T00:07:24.610Z,16.87
2019-02-22T00:12:10.542Z,18.20
2019-02-22T00:16:56.337Z,15.20
2019-02-22T00:21:42.076Z,12.37
2019-02-22T00:26:30.873Z,13.23
2019-02-22T00:31:17.122Z,18.37
2019-02-22T00:36:04.008Z,27.10
2019-02-22T00:40:49.798Z,28.10
2019-02-22T00:45:35.642Z,18.13
2019-02-22T00:50:22.409Z,18.80
2019-02-22T00:55:08.357Z,22.50
2019-02-22T00:59:54.127Z,21.47
2019-02-22T01:04:41.228Z,20.87
2019-02-22T01:09:26.941Z,30.43
2019-02-22T01:14:12.634Z,21.93
2019-02-22T01:18:58.650Z,20.13
2019-02-22T01:23:44.339Z,22.40
2019-02-22T01:28:31.121Z,22.77
2019-02-22T01:33:17.343Z,23.33
2019-02-22T01:38:03.219Z,24.37
2019-02-22T01:42:48.939Z,24.43
2019-02-22T01:47:34.790Z,22.57
2019-02-22T01:52:20.478Z,20.63
2019-02-22T01:57:06.181Z,22.47
2019-02-22T02:01:52.227Z,18.53
2019-02-22T02:06:37.962Z,25.20
2019-02-22T02:11:23.658Z,24.20
2019-02-22T02:16:09.667Z,26.17
2019-02-22T02:20:55.949Z,16.63
2019-02-22T02:25:42.489Z,20.20
2019-02-22T02:30:28.223Z,19.67
2019-02-22T02:35:13.934Z,31.13
2019-02-22T02:40:00.490Z,19.97
2019-02-22T02:44:46.234Z,18.33
2019-02-22T02:49:32.868Z,14.87
2019-02-22T02:54:19.016Z,18.43
2019-02-22T02:59:05.982Z,15.50
2019-02-22T03:03:51.786Z,21.40
2019-02-22T03:08:38.510Z,13.93
2019-02-22T03:13:24.197Z,16.43
2019-02-22T03:18:10.234Z,15.20
2019-02-22T03:22:56.930Z,10.13
2019-02-22T03:27:43.802Z,14.77
2019-02-22T03:32:30.623Z,16.73
2019-02-22T03:37:17.197Z,18.20
2019-02-22T03:42:02.816Z,13.53
2019-02-22T03:46:48.615Z,11.37
2019-02-22T03:51:35.316Z,18.00
2019-02-22T03:56:21.168Z,12.50
2019-02-22T04:01:06.933Z,19.47
2019-02-22T04:05:52.723Z,15.87
2019-02-22T04:10:38.923Z,16.93
2019-02-22T04:15:24.657Z,18.83
2019-02-22T04:20:10.783Z,13.87
2019-02-22T04:24:56.743Z,15.77
2019-02-22T04:29:42.552Z,14.07
2019-02-22T04:34:28.310Z,17.27
2019-02-22T04:39:14.068Z,19.47
2019-02-22T04:43:59.865Z,22.57
2019-02-22T04:48:45.669Z,19.23
2019-02-22T04:53:31.377Z,15.00
2019-02-22T04:58:17.139Z,16.93
2019-02-22T05:03:02.942Z,14.43
2019-02-22T05:07:48.834Z,16.83
2019-02-22T05:12:34.567Z,24.53
2019-02-22T05:17:20.388Z,23.03
2019-02-22T05:22:06.344Z,20.77
2019-02-22T05:26:52.419Z,19.33
2019-02-22T05:31:38.486Z,14.37
2019-02-22T05:36:24.278Z,18.13
2019-02-22T05:41:10.111Z,20.30
2019-02-22T05:45:56.005Z,17.97
2019-02-22T05:50:41.803Z,17.53
2019-02-22T05:55:27.593Z,15.80
2019-02-22T06:00:14.016Z,15.10
2019-02-22T06:04:59.884Z,17.80
2019-02-22T06:09:45.590Z,21.97
2019-02-22T06:14:31.301Z,22.77
2019-02-22T06:19:17.132Z,19.33
2019-02-22T06:24:03.144Z,27.33
2019-02-22T06:28:49.058Z,26.37
2019-02-22T06:33:35.835Z,23.17
2019-02-22T06:38:22.540Z,22.80
2019-02-22T06:43:08.206Z,20.47
2019-02-22T06:47:53.937Z,24.07
2019-02-22T06:52:39.642Z,25.03
2019-02-22T06:57:25.313Z,35.77
2019-02-22T07:02:11.119Z,25.40
2019-02-22T07:06:56.846Z,30.70
2019-02-22T07:11:47.162Z,36.50
2019-02-22T07:16:32.889Z,26.93
2019-02-22T07:21:18.630Z,29.03
2019-02-22T07:26:04.422Z,28.93
2019-02-22T07:30:50.167Z,33.03
2019-02-22T07:35:36.092Z,22.40
2019-02-22T07:40:21.881Z,27.93
2019-02-22T07:45:09.686Z,25.20
2019-02-22T07:49:55.601Z,31.07
2019-02-22T07:54:41.431Z,26.87
2019-02-22T07:59:27.217Z,33.67
2019-02-22T08:04:12.970Z,26.67
2019-02-22T08:08:58.759Z,30.87
2019-02-22T08:13:44.507Z,27.67
2019-02-22T08:18:30.242Z,29.47
2019-02-22T08:23:15.955Z,32.50
2019-02-22T08:28:01.769Z,30.77
2019-02-22T08:32:47.517Z,39.33
2019-02-22T08:37:33.248Z,37.67
2019-02-22T08:42:18.974Z,40.03
2019-02-22T08:47:04.716Z,44.27
2019-02-22T08:51:50.449Z,39.20
2019-02-22T08:56:36.213Z,47.00
2019-02-22T09:01:21.942Z,37.60
2019-02-22T09:06:07.701Z,48.87
2019-02-22T09:11:00.470Z,47.37
2019-02-22T09:15:40.789Z,48.30
2019-02-22T09:20:26.675Z,39.80
2019-02-22T09:25:12.591Z,33.13
2019-02-22T09:29:59.288Z,38.47
2019-02-22T09:34:46.174Z,36.47
2019-02-22T09:39:32.189Z,34.20
2019-02-22T09:44:17.866Z,30.47
2019-02-22T09:49:03.694Z,33.73
2019-02-22T09:53:49.486Z,35.10
2019-02-22T09:58:35.276Z,32.03
2019-02-22T10:03:21.006Z,31.47
2019-02-22T10:08:06.814Z,26.80
2019-02-22T10:12:52.558Z,32.10
2019-02-22T10:17:38.348Z,31.60
2019-02-22T10:22:24.102Z,27.83
2019-02-22T10:27:12.013Z,35.70
2019-02-22T10:31:57.208Z,30.57
2019-02-22T10:36:45.388Z,38.90
2019-02-22T10:41:30.231Z,36.27
2019-02-22T10:46:15.980Z,35.10
2019-02-22T10:51:02.101Z,25.50
2019-02-22T10:55:48.117Z,30.83
2019-02-22T11:00:33.967Z,30.93
2019-02-22T11:05:19.792Z,33.30
2019-02-22T11:10:06.391Z,36.67
2019-02-22T11:14:52.485Z,41.53
2019-02-22T11:19:38.780Z,42.73
2019-02-22T11:24:24.678Z,36.80
2019-02-22T11:29:10.617Z,32.43
2019-02-22T11:33:56.572Z,33.00
2019-02-22T11:38:43.057Z,34.50
2019-02-22T11:43:29.472Z,31.17
2019-02-22T11:48:15.506Z,32.23
2019-02-22T11:53:01.631Z,30.60
2019-02-22T11:57:48.013Z,31.07
2019-02-22T12:02:34.376Z,42.23
2019-02-22T12:07:20.223Z,36.73
2019-02-22T12:12:06.551Z,35.77
2019-02-22T12:16:52.742Z,42.27
2019-02-22T12:21:38.835Z,30.47
2019-02-22T12:26:24.972Z,32.27
2019-02-22T12:31:11.327Z,31.80
2019-02-22T12:35:57.507Z,36.07
2019-02-22T12:40:43.548Z,25.20
2019-02-22T12:45:29.414Z,30.73
2019-02-22T12:50:15.656Z,32.97
2019-02-22T12:55:01.514Z,32.23
2019-02-22T12:59:47.530Z,27.60
2019-02-22T13:04:33.303Z,30.93
2019-02-22T13:09:19.292Z,36.70
2019-02-22T13:14:05.319Z,36.40
2019-02-22T13:18:51.103Z,33.77
2019-02-22T13:23:37.210Z,33.13
2019-02-22T13:28:23.066Z,38.47
2019-02-22T13:33:09.733Z,35.43
2019-02-22T13:37:56.288Z,34.67
2019-02-22T13:42:42.387Z,33.17
2019-02-22T13:47:29.719Z,38.77
2019-02-22T13:52:16.128Z,36.93
2019-02-22T13:57:02.141Z,31.03
2019-02-22T14:01:54.531Z,37.17
2019-02-22T14:06:43.083Z,34.60
2019-02-22T14:11:28.907Z,33.57
2019-02-22T14:16:15.052Z,29.60
2019-02-22T14:21:02.357Z,24.30
2019-02-22T14:25:48.510Z,23.00
2019-02-22T14:30:35.793Z,26.63
2019-02-22T14:35:22.540Z,24.23
2019-02-22T14:40:10.450Z,21.37
2019-02-22T14:45:01.738Z,18.73
2019-02-22T14:49:48.035Z,19.33
2019-02-22T14:54:34.121Z,18.50
2019-02-22T14:59:19.888Z,21.97
2019-02-22T15:04:06.557Z,22.70
2019-02-22T15:08:52.720Z,21.87
2019-02-22T15:13:38.739Z,25.83
2019-02-22T15:18:25.030Z,27.80
2019-02-22T15:23:15.347Z,21.37
2019-02-22T15:28:03.328Z,27.03
2019-02-22T15:32:50.086Z,21.80
2019-02-22T15:37:35.954Z,32.37
2019-02-22T15:42:22.206Z,29.77
2019-02-22T15:47:12.102Z,27.53
2019-02-22T15:51:57.821Z,25.47
2019-02-22T15:56:44.500Z,28.60
2019-02-22T16:01:30.850Z,24.83
2019-02-22T16:06:17.319Z,28.23
2019-02-22T16:11:03.296Z,25.43
2019-02-22T16:15:49.287Z,22.10
2019-02-22T16:20:36.185Z,33.07
2019-02-22T16:25:21.945Z,29.20
2019-02-22T16:30:10.755Z,30.47
2019-02-22T16:34:56.868Z,32.37
2019-02-22T16:39:42.954Z,28.70
2019-02-22T16:44:29.406Z,29.60
2019-02-22T16:49:20.532Z,26.87
2019-02-22T16:54:07.123Z,26.53
2019-02-22T16:58:54.041Z,24.23
2019-02-22T17:03:40.023Z,30.40
2019-02-22T17:08:25.925Z,32.00
2019-02-22T17:13:11.881Z,31.93
2019-02-22T17:17:57.871Z,30.90
2019-02-22T17:22:45.403Z,29.00
2019-02-22T17:27:32.150Z,31.93
2019-02-22T17:32:18.418Z,32.93
2019-02-22T17:37:04.790Z,37.40
2019-02-22T17:41:51.050Z,34.33
2019-02-22T17:46:37.009Z,35.70
2019-02-22T17:51:23.065Z,38.93
2019-02-22T17:56:09.691Z,48.87
2019-02-22T18:00:56.373Z,57.77
2019-02-22T18:05:42.692Z,146.03
2019-02-22T18:10:29.309Z,74.83
2019-02-22T18:15:15.715Z,46.73
2019-02-22T18:20:22.293Z,44.37
2019-02-22T18:25:08.750Z,36.43
2019-02-22T18:30:01.549Z,37.70
2019-02-22T18:34:50.724Z,42.20
2019-02-22T18:39:37.167Z,42.47
2019-02-22T18:44:24.263Z,40.23
2019-02-22T18:49:11.241Z,52.77
2019-02-22T18:53:58.178Z,51.87
2019-02-22T18:58:44.464Z,36.57
2019-02-22T19:03:31.721Z,36.70
2019-02-22T19:08:18.900Z,63.53
2019-02-22T19:13:08.421Z,70.73
2019-02-22T19:17:55.337Z,43.97
2019-02-22T19:22:42.897Z,46.73
2019-02-22T19:27:29.173Z,58.77
2019-02-22T19:32:15.194Z,51.67
2019-02-22T19:37:02.270Z,46.17
2019-02-22T19:41:48.811Z,49.40
2019-02-22T19:46:35.524Z,50.60
2019-02-22T19:51:22.083Z,40.63
2019-02-22T19:56:08.463Z,40.33
2019-02-22T20:00:56.414Z,36.63
2019-02-22T20:05:43.633Z,40.40
2019-02-22T20:10:31.604Z,31.83
2019-02-22T20:15:18.405Z,37.77
2019-02-22T20:20:04.490Z,39.73
2019-02-22T20:24:51.300Z,40.93
2019-02-22T20:29:37.464Z,48.27
2019-02-22T20:34:24.029Z,41.73
2019-02-22T20:39:12.819Z,41.30
2019-02-22T20:44:00.159Z,53.90
2019-02-22T20:48:46.978Z,46.10
2019-02-22T20:53:32.968Z,50.40
2019-02-22T20:58:19.720Z,50.10
2019-02-22T21:03:06.322Z,44.67
2019-02-22T21:07:52.473Z,47.80
2019-02-22T21:12:38.801Z,34.50
2019-02-22T21:17:25.042Z,36.20
2019-02-22T21:22:11.866Z,40.77
2019-02-22T21:26:57.974Z,51.37
2019-02-22T21:31:43.922Z,40.60
2019-02-22T21:36:29.880Z,37.90
2019-02-22T21:41:16.511Z,29.47
2019-02-22T21:46:02.673Z,36.07
2019-02-22T21:50:49.381Z,35.53
2019-02-22T21:55:35.384Z,31.33
2019-02-22T22:00:21.730Z,35.50
2019-02-22T22:05:08.842Z,31.37
2019-02-22T22:09:54.669Z,29.60
2019-02-22T22:14:40.792Z,24.50
2019-02-22T22:19:26.605Z,36.17
2019-02-22T22:24:16.233Z,43.30
2019-02-22T22:29:02.130Z,33.73
2019-02-22T22:33:48.250Z,43.40
2019-02-22T22:38:34.077Z,39.37
2019-02-22T22:43:19.980Z,53.80
2019-02-22T22:48:05.872Z,32.97
2019-02-22T22:52:51.693Z,30.30
2019-02-22T22:57:37.680Z,35.90
2019-02-22T23:02:23.919Z,32.57
2019-02-22T23:07:09.862Z,35.17
2019-02-22T23:11:56.305Z,48.23
2019-02-22T23:16:42.097Z,40.37
2019-02-22T23:21:30.162Z,40.17
2019-02-22T23:26:15.653Z,31.50
2019-02-22T23:31:01.487Z,40.60
2019-02-22T23:35:47.417Z,38.80
2019-02-22T23:40:33.169Z,40.13
2019-02-22T23:45:19.330Z,47.70
2019-02-22T23:50:05.351Z,42.63
2019-02-22T23:54:51.272Z,34.77
2019-02-22T23:59:37.125Z,39.83
